createdAt,value
2017-02-19T00:00:26.859Z,73.88
2017-02-19T00:01:37.398Z,73.88
2017-02-19T00:02:47.239Z,73.79
2017-02-19T00:03:56.751Z,73.5
2017-02-19T00:05:06.607Z,73.69
2017-02-19T00:06:16.932Z,73.5
2017-02-19T00:07:27.483Z,73.5
2017-02-19T00:08:37.777Z,73.69
2017-02-19T00:09:48.239Z,73.6
2017-02-19T00:10:58.081Z,73.94
2017-02-19T00:12:07.545Z,73.84
2017-02-19T00:13:17.650Z,73.84
2017-02-19T00:14:27.118Z,73.94
2017-02-19T00:15:37.011Z,74.03
2017-02-19T00:16:47.337Z,73.46
2017-02-19T00:17:57.236Z,73.56
2017-02-19T00:19:07.746Z,73.94
2017-02-19T00:20:18.036Z,73.75
2017-02-19T00:21:28.279Z,73.56
2017-02-19T00:22:37.723Z,73.65
2017-02-19T00:23:48.037Z,73.46
2017-02-19T00:24:58.156Z,73.56
2017-02-19T00:26:08.083Z,73.84
2017-02-19T00:27:18.423Z,73.75
2017-02-19T00:28:28.277Z,73.37
2017-02-19T00:29:37.801Z,73.37
2017-02-19T00:30:48.395Z,73.27
2017-02-19T00:31:58.667Z,73.37
2017-02-19T00:33:08.526Z,73.56
2017-02-19T00:34:18.822Z,73.56
2017-02-19T00:35:28.267Z,73.75
2017-02-19T00:36:38.379Z,73.56
2017-02-19T00:37:48.317Z,73.75
2017-02-19T00:38:58.592Z,73.84
2017-02-19T00:40:08.839Z,73.84
2017-02-19T00:41:18.783Z,73.84
2017-02-19T00:42:28.892Z,73.84
2017-02-19T00:43:38.848Z,73.65
2017-02-19T00:44:49.143Z,73.84
2017-02-19T00:45:58.992Z,73.84
2017-02-19T00:47:08.878Z,73.75
2017-02-19T00:48:50.313Z,73.46
2017-02-19T00:50:00.199Z,73.46
2017-02-19T00:51:10.096Z,73.46
2017-02-19T00:52:19.723Z,73.46
2017-02-19T00:53:29.864Z,73.27
2017-02-19T00:54:40.164Z,72.99
2017-02-19T00:55:50.502Z,73.46
2017-02-19T00:56:59.957Z,72.99
2017-02-19T00:58:10.253Z,73.27
2017-02-19T00:59:20.363Z,73.37
2017-02-19T01:00:30.286Z,73.37
2017-02-19T01:01:40.200Z,73.46
2017-02-19T01:02:50.463Z,73.65
2017-02-19T01:04:00.779Z,73.75
2017-02-19T01:05:11.325Z,73.37
2017-02-19T01:06:21.604Z,73.84
2017-02-19T01:07:31.450Z,73.75
2017-02-19T01:08:40.928Z,73.84
2017-02-19T01:09:51.306Z,73.84
2017-02-19T01:11:01.438Z,73.65
2017-02-19T01:12:11.361Z,74.32
2017-02-19T01:13:21.232Z,74.13
2017-02-19T01:14:30.423Z,74.03
2017-02-19T01:15:40.309Z,74.51
2017-02-19T01:16:50.823Z,74.51
2017-02-19T01:18:01.159Z,74.03
2017-02-19T01:19:11.461Z,74.18
2017-02-19T01:20:21.795Z,74.28
2017-02-19T01:21:31.244Z,74.28
2017-02-19T01:22:41.406Z,74.28
2017-02-19T01:23:50.948Z,73.99
2017-02-19T01:25:01.256Z,74.09
2017-02-19T01:26:11.555Z,74.28
2017-02-19T01:27:21.813Z,74.37
2017-02-19T01:28:31.905Z,74.56
2017-02-19T01:29:42.283Z,74.66
2017-02-19T01:30:52.553Z,74.66
2017-02-19T01:32:02.817Z,74.75
2017-02-19T01:33:13.101Z,74.95
2017-02-19T01:34:23.308Z,75.23
2017-02-19T01:35:33.241Z,75.23
2017-02-19T01:36:43.666Z,75.13
2017-02-19T01:37:54.023Z,74.95
2017-02-19T01:39:04.272Z,75.13
2017-02-19T01:40:14.442Z,75.04
2017-02-19T01:41:23.890Z,75.32
2017-02-19T01:42:33.769Z,74.95
2017-02-19T01:43:43.622Z,75.32
2017-02-19T01:44:54.033Z,75.23
2017-02-19T01:46:04.590Z,74.85
2017-02-19T01:47:14.460Z,75.13
2017-02-19T01:48:23.895Z,75.79
2017-02-19T01:49:33.773Z,75.51
2017-02-19T01:50:43.226Z,75.32
2017-02-19T01:51:53.329Z,75.13
2017-02-19T01:53:02.806Z,75.13
2017-02-19T01:54:12.736Z,74.85
2017-02-19T01:55:23.047Z,75.23
2017-02-19T01:56:33.574Z,75.04
2017-02-19T01:57:43.343Z,74.75
2017-02-19T01:58:53.686Z,74.85
2017-02-19T02:00:03.555Z,74.85
2017-02-19T02:01:13.447Z,74.95
2017-02-19T02:02:23.772Z,74.95
2017-02-19T02:03:33.529Z,74.85
2017-02-19T02:04:43.384Z,74.95
2017-02-19T02:05:53.679Z,74.95
2017-02-19T02:07:03.592Z,74.95
2017-02-19T02:08:13.456Z,75.04
2017-02-19T02:09:24.228Z,75.42
2017-02-19T02:10:34.492Z,75.6
2017-02-19T02:11:43.574Z,75.42
2017-02-19T02:12:53.857Z,75.6
2017-02-19T02:14:03.443Z,75.6
2017-02-19T02:15:13.189Z,75.13
2017-02-19T02:16:23.556Z,75.42
2017-02-19T02:17:33.409Z,75.79
2017-02-19T02:18:43.701Z,75.6
2017-02-19T02:19:53.573Z,75.6
2017-02-19T02:21:04.202Z,75.6
2017-02-19T02:22:14.451Z,75.42
2017-02-19T02:23:24.710Z,75.6
2017-02-19T02:24:34.262Z,75.7
2017-02-19T02:25:44.601Z,75.7
2017-02-19T02:26:55.195Z,75.7
2017-02-19T02:28:05.504Z,75.6
2017-02-19T02:29:14.976Z,75.6
2017-02-19T02:30:24.841Z,75.7
2017-02-19T02:31:34.712Z,75.89
2017-02-19T02:32:45.286Z,75.79
2017-02-19T02:33:55.852Z,75.51
2017-02-19T02:35:05.757Z,75.7
2017-02-19T02:36:16.022Z,75.7
2017-02-19T02:37:26.346Z,75.89
2017-02-19T02:38:35.698Z,75.51
2017-02-19T02:39:45.952Z,75.51
2017-02-19T02:40:56.495Z,75.6
2017-02-19T02:42:06.765Z,75.89
2017-02-19T02:43:17.069Z,75.7
2017-02-19T02:44:27.175Z,75.51
2017-02-19T02:45:37.506Z,76.08
2017-02-19T02:46:47.390Z,76.23
2017-02-19T02:47:56.841Z,76.32
2017-02-19T02:49:07.182Z,75.95
2017-02-19T02:50:17.287Z,76.23
2017-02-19T02:51:27.152Z,76.32
2017-02-19T02:52:37.447Z,76.51
2017-02-19T02:53:47.459Z,76.42
2017-02-19T02:54:57.768Z,76.8
2017-02-19T02:56:07.901Z,76.61
2017-02-19T02:57:18.182Z,76.51
2017-02-19T02:58:28.080Z,76.7
2017-02-19T02:59:38.325Z,77.08
2017-02-19T03:00:48.636Z,76.89
2017-02-19T03:01:58.747Z,76.89
2017-02-19T03:03:07.858Z,76.99
2017-02-19T03:04:17.747Z,76.89
2017-02-19T03:05:28.003Z,77.65
2017-02-19T03:06:37.467Z,77.75
2017-02-19T03:07:48.027Z,77.27
2017-02-19T03:08:58.355Z,77.46
2017-02-19T03:10:08.219Z,77.75
2017-02-19T03:11:18.222Z,77.46
2017-02-19T03:12:27.286Z,77.56
2017-02-19T03:13:37.818Z,77.75
2017-02-19T03:14:48.091Z,77.75
2017-02-19T03:15:57.635Z,77.75
2017-02-19T03:17:07.893Z,77.75
2017-02-19T03:18:18.305Z,77.75
2017-02-19T03:19:28.860Z,77.65
2017-02-19T03:20:39.118Z,77.84
2017-02-19T03:21:48.987Z,77.56
2017-02-19T03:22:58.832Z,77.56
2017-02-19T03:24:08.691Z,78.03
2017-02-19T03:25:18.452Z,77.94
2017-02-19T03:26:28.831Z,77.94
2017-02-19T03:27:39.078Z,77.94
2017-02-19T03:28:49.064Z,77.94
2017-02-19T03:29:58.528Z,78.03
2017-02-19T03:31:08.254Z,77.94
2017-02-19T03:32:18.172Z,77.84
2017-02-19T03:33:28.433Z,77.94
2017-02-19T03:34:38.719Z,77.84
2017-02-19T03:35:48.626Z,78.03
2017-02-19T03:36:59.150Z,78.03
2017-02-19T03:38:08.997Z,77.75
2017-02-19T03:39:19.296Z,77.75
2017-02-19T03:40:29.689Z,77.65
2017-02-19T03:41:39.973Z,77.94
2017-02-19T03:42:50.487Z,78.03
2017-02-19T03:44:00.324Z,77.84
2017-02-19T03:45:09.803Z,77.75
2017-02-19T03:46:20.115Z,77.75
2017-02-19T03:47:30.373Z,77.65
2017-02-19T03:48:40.485Z,77.56
2017-02-19T03:49:50.744Z,77.75
2017-02-19T03:51:00.984Z,77.56
2017-02-19T03:52:10.561Z,77.65
2017-02-19T03:53:20.011Z,77.65
2017-02-19T03:54:29.739Z,77.37
2017-02-19T03:55:39.602Z,77.56
2017-02-19T03:56:49.858Z,77.65
2017-02-19T03:57:59.399Z,77.65
2017-02-19T03:59:09.241Z,77.18
2017-02-19T04:00:19.748Z,77.08
2017-02-19T04:01:29.291Z,76.61
2017-02-19T04:02:39.153Z,77.08
2017-02-19T04:03:49.020Z,76.89
2017-02-19T04:04:59.277Z,76.89
2017-02-19T04:06:09.985Z,76.8
2017-02-19T04:07:19.487Z,76.89
2017-02-19T04:08:29.801Z,76.99
2017-02-19T04:09:38.863Z,76.8
2017-02-19T04:10:48.324Z,76.8
2017-02-19T04:11:58.844Z,76.8
2017-02-19T04:13:08.693Z,76.8
2017-02-19T04:14:18.939Z,76.61
2017-02-19T04:15:29.234Z,76.89
2017-02-19T04:16:39.571Z,77.84
2017-02-19T04:17:50.101Z,77.56
2017-02-19T04:18:59.970Z,77.56
2017-02-19T04:20:09.925Z,77.27
2017-02-19T04:21:19.431Z,77.46
2017-02-19T04:22:29.304Z,77.46
2017-02-19T04:23:39.474Z,77.65
2017-02-19T04:24:49.346Z,77.84
2017-02-19T04:25:59.660Z,77.75
2017-02-19T04:27:09.556Z,77.37
2017-02-19T04:28:19.832Z,77.75
2017-02-19T04:29:30.401Z,77.46
2017-02-19T04:30:40.241Z,77.75
2017-02-19T04:31:50.634Z,77.46
2017-02-19T04:33:01.087Z,77.56
2017-02-19T04:34:11.371Z,77.56
2017-02-19T04:35:22.077Z,77.65
2017-02-19T04:36:32.428Z,77.18
2017-02-19T04:37:42.754Z,77.65
2017-02-19T04:38:52.236Z,77.56
2017-02-19T04:40:02.140Z,77.75
2017-02-19T04:41:12.280Z,77.65
2017-02-19T04:42:22.598Z,77.56
2017-02-19T04:43:32.531Z,77.65
2017-02-19T04:44:42.378Z,77.27
2017-02-19T04:45:51.878Z,77.27
2017-02-19T04:47:02.393Z,77.37
2017-02-19T04:48:11.844Z,77.75
2017-02-19T04:49:22.132Z,77.46
2017-02-19T04:50:32.001Z,77.65
2017-02-19T04:51:41.910Z,77.65
2017-02-19T04:52:52.023Z,77.84
2017-02-19T04:54:02.319Z,77.84
2017-02-19T04:55:12.583Z,77.94
2017-02-19T04:56:22.452Z,77.94
2017-02-19T04:57:32.404Z,78.03
2017-02-19T04:58:42.508Z,77.94
2017-02-19T04:59:52.767Z,77.75
2017-02-19T05:01:03.044Z,77.84
2017-02-19T05:02:12.893Z,78.03
2017-02-19T05:03:22.742Z,78.31
2017-02-19T05:04:33.261Z,78.31
2017-02-19T05:05:43.283Z,78.22
2017-02-19T05:06:53.523Z,78.22
2017-02-19T05:08:03.850Z,78.13
2017-02-19T05:09:13.697Z,77.94
2017-02-19T05:10:24.220Z,78.22
2017-02-19T05:11:34.068Z,78.13
2017-02-19T05:12:43.971Z,78.41
2017-02-19T05:13:53.818Z,78.37
2017-02-19T05:15:04.108Z,78.69
2017-02-19T05:16:14.686Z,78.75
2017-02-19T05:17:24.534Z,78.69
2017-02-19T05:18:34.798Z,78.85
2017-02-19T05:19:44.687Z,78.75
2017-02-19T05:20:54.589Z,78.46
2017-02-19T05:22:05.127Z,78.75
2017-02-19T05:23:14.982Z,78.65
2017-02-19T05:24:25.251Z,78.18
2017-02-19T05:25:35.494Z,78.65
2017-02-19T05:26:45.386Z,78.27
2017-02-19T05:27:55.881Z,78.94
2017-02-19T05:29:05.844Z,78.46
2017-02-19T05:30:15.749Z,78.75
2017-02-19T05:31:26.029Z,78.65
2017-02-19T05:32:35.893Z,78.56
2017-02-19T05:33:45.991Z,78.56
2017-02-19T05:34:55.447Z,78.75
2017-02-19T05:36:05.314Z,78.75
2017-02-19T05:37:15.593Z,78.75
2017-02-19T05:38:25.482Z,78.56
2017-02-19T05:39:35.658Z,78.65
2017-02-19T05:40:45.941Z,78.46
2017-02-19T05:41:56.221Z,78.56
2017-02-19T05:43:06.565Z,78.65
2017-02-19T05:44:16.866Z,78.65
2017-02-19T05:45:26.955Z,79.03
2017-02-19T05:46:36.835Z,78.94
2017-02-19T05:47:47.084Z,78.65
2017-02-19T05:48:56.936Z,79.13
2017-02-19T05:50:06.867Z,79.03
2017-02-19T05:51:17.028Z,78.75
2017-02-19T05:52:27.308Z,78.85
2017-02-19T05:53:37.633Z,78.94
2017-02-19T05:54:47.484Z,79.03
2017-02-19T05:55:57.996Z,78.94
2017-02-19T05:57:08.563Z,79.07
2017-02-19T05:58:18.424Z,79.17
2017-02-19T05:59:28.684Z,79.07
2017-02-19T06:00:38.133Z,79.22
2017-02-19T06:01:48.383Z,78.94
2017-02-19T06:02:59.085Z,79.36
2017-02-19T06:04:09.320Z,79.32
2017-02-19T06:05:19.199Z,78.94
2017-02-19T06:06:29.503Z,78.94
2017-02-19T06:07:39.364Z,79.03
2017-02-19T06:08:49.898Z,78.59
2017-02-19T06:10:00.221Z,78.94
2017-02-19T06:11:10.495Z,79.36
2017-02-19T06:12:20.341Z,78.88
2017-02-19T06:13:30.671Z,78.69
2017-02-19T06:14:40.801Z,78.79
2017-02-19T06:15:51.487Z,79.07
2017-02-19T06:17:01.769Z,78.98
2017-02-19T06:18:12.044Z,78.98
2017-02-19T06:19:22.444Z,79.17
2017-02-19T06:20:32.970Z,79.36
2017-02-19T06:21:43.310Z,78.98
2017-02-19T06:22:53.305Z,79.17
2017-02-19T06:24:03.156Z,79.17
2017-02-19T06:25:13.060Z,79.17
2017-02-19T06:26:23.153Z,79.07
2017-02-19T06:27:33.442Z,79.07
2017-02-19T06:28:43.312Z,79.07
2017-02-19T06:29:53.575Z,79.03
2017-02-19T06:31:03.853Z,78.98
2017-02-19T06:32:14.029Z,79.26
2017-02-19T06:33:24.270Z,79.07
2017-02-19T06:34:34.149Z,79.07
2017-02-19T06:35:44.485Z,79.07
2017-02-19T06:36:54.748Z,79.36
2017-02-19T06:38:04.893Z,79.26
2017-02-19T06:39:15.151Z,79.26
2017-02-19T06:40:25.076Z,79.26
2017-02-19T06:41:34.605Z,79.07
2017-02-19T06:42:44.873Z,78.98
2017-02-19T06:43:55.013Z,79.07
2017-02-19T06:45:05.442Z,79.07
2017-02-19T06:46:15.337Z,78.79
2017-02-19T06:47:25.216Z,79.17
2017-02-19T06:48:35.126Z,79.17
2017-02-19T06:49:45.230Z,79.17
2017-02-19T06:50:55.497Z,79.07
2017-02-19T06:52:05.822Z,79.17
2017-02-19T06:53:16.099Z,79.36
2017-02-19T06:54:26.365Z,78.98
2017-02-19T06:55:36.935Z,78.69
2017-02-19T06:56:46.837Z,78.79
2017-02-19T06:57:57.121Z,78.69
2017-02-19T06:59:07.454Z,78.5
2017-02-19T07:00:17.770Z,78.59
2017-02-19T07:01:28.276Z,78.73
2017-02-19T07:02:37.735Z,78.26
2017-02-19T07:03:47.633Z,78.45
2017-02-19T07:04:57.513Z,78.07
2017-02-19T07:06:07.383Z,78.26
2017-02-19T07:07:17.991Z,78.35
2017-02-19T07:08:27.840Z,77.97
2017-02-19T07:09:37.775Z,77.97
2017-02-19T07:10:47.625Z,77.88
2017-02-19T07:11:57.471Z,77.97
2017-02-19T07:13:07.175Z,77.97
2017-02-19T07:14:17.449Z,77.5
2017-02-19T07:15:26.999Z,77.78
2017-02-19T07:16:37.286Z,77.88
2017-02-19T07:17:47.623Z,77.69
2017-02-19T07:18:58.112Z,76.93
2017-02-19T07:20:08.108Z,76.93
2017-02-19T07:21:50.094Z,76.68
2017-02-19T07:23:00.409Z,75.55
2017-02-19T07:24:10.907Z,75.96
2017-02-19T07:25:21.180Z,75.64
2017-02-19T07:26:31.052Z,75.55
2017-02-19T07:27:40.198Z,75.64
2017-02-19T07:28:50.047Z,75.74
2017-02-19T07:30:00.182Z,75.26
2017-02-19T07:31:10.042Z,75.55
2017-02-19T07:32:20.307Z,75.55
2017-02-19T07:33:30.202Z,75.45
2017-02-19T07:34:40.586Z,75.55
2017-02-19T07:35:51.119Z,75.45
2017-02-19T07:37:01.409Z,75.45
2017-02-19T07:38:11.668Z,75.64
2017-02-19T07:39:22.156Z,75.74
2017-02-19T07:40:32.422Z,75.84
2017-02-19T07:41:42.546Z,75.84
2017-02-19T07:42:52.483Z,75.74
2017-02-19T07:44:02.727Z,75.84
2017-02-19T07:45:12.648Z,75.74
2017-02-19T07:46:22.928Z,75.74
2017-02-19T07:47:33.461Z,75.84
2017-02-19T07:48:43.779Z,75.84
2017-02-19T07:49:54.026Z,75.93
2017-02-19T07:51:04.352Z,75.93
2017-02-19T07:52:14.687Z,75.74
2017-02-19T07:53:24.874Z,75.84
2017-02-19T07:54:35.137Z,76.03
2017-02-19T07:55:44.992Z,75.74
2017-02-19T07:56:54.851Z,75.84
2017-02-19T07:58:04.812Z,76.03
2017-02-19T07:59:15.374Z,75.84
2017-02-19T08:00:24.846Z,75.64
2017-02-19T08:01:35.149Z,75.84
2017-02-19T08:02:45.466Z,75.55
2017-02-19T08:03:55.749Z,75.64
2017-02-19T08:05:06.289Z,75.55
2017-02-19T08:06:16.249Z,75.26
2017-02-19T08:07:26.533Z,75.17
2017-02-19T08:08:36.486Z,75.17
2017-02-19T08:09:46.857Z,75.17
2017-02-19T08:10:57.027Z,75.17
2017-02-19T08:12:06.925Z,74.98
2017-02-19T08:13:16.821Z,74.88
2017-02-19T08:14:27.121Z,74.88
2017-02-19T08:15:36.998Z,74.79
2017-02-19T08:16:47.093Z,74.88
2017-02-19T08:17:56.959Z,74.88
2017-02-19T08:19:07.238Z,74.79
2017-02-19T08:20:17.195Z,74.79
2017-02-19T08:21:27.078Z,75.07
2017-02-19T08:22:37.634Z,74.79
2017-02-19T08:23:47.908Z,74.98
2017-02-19T08:24:57.767Z,74.88
2017-02-19T08:26:08.029Z,75.07
2017-02-19T08:27:17.879Z,74.69
2017-02-19T08:28:28.410Z,74.79
2017-02-19T08:29:38.681Z,74.51
2017-02-19T08:30:48.580Z,74.69
2017-02-19T08:31:58.820Z,74.51
2017-02-19T08:33:09.188Z,74.79
2017-02-19T08:34:19.445Z,74.69
2017-02-19T08:35:29.734Z,74.54
2017-02-19T08:36:39.994Z,74.6
2017-02-19T08:37:50.388Z,74.32
2017-02-19T08:39:00.666Z,74.73
2017-02-19T08:40:11.181Z,74.6
2017-02-19T08:41:21.549Z,74.41
2017-02-19T08:42:30.991Z,74.73
2017-02-19T08:43:41.346Z,74.6
2017-02-19T08:44:50.787Z,74.83
2017-02-19T08:46:01.294Z,74.54
2017-02-19T08:47:11.555Z,74.26
2017-02-19T08:48:21.829Z,74.16
2017-02-19T08:49:31.311Z,74.54
2017-02-19T08:50:40.794Z,74.26
2017-02-19T08:51:50.893Z,74.16
2017-02-19T08:53:01.139Z,74.16
2017-02-19T08:54:11.409Z,74.26
2017-02-19T08:55:21.717Z,74.35
2017-02-19T08:56:31.998Z,74.16
2017-02-19T08:57:42.151Z,74.45
2017-02-19T08:58:52.421Z,74.07
2017-02-19T09:00:02.681Z,73.97
2017-02-19T09:01:12.610Z,74.07
2017-02-19T09:02:22.575Z,73.97
2017-02-19T09:03:32.690Z,74.16
2017-02-19T09:04:42.599Z,74.35
2017-02-19T09:05:53.128Z,74.35
2017-02-19T09:07:03.407Z,73.88
2017-02-19T09:08:13.369Z,73.6
2017-02-19T09:09:23.099Z,73.97
2017-02-19T09:10:33.436Z,73.97
2017-02-19T09:11:43.299Z,74.07
2017-02-19T09:12:53.709Z,73.97
2017-02-19T09:14:03.589Z,73.88
2017-02-19T09:15:14.228Z,73.88
2017-02-19T09:16:24.504Z,73.79
2017-02-19T09:17:34.817Z,73.6
2017-02-19T09:18:45.117Z,73.63
2017-02-19T09:19:55.375Z,73.35
2017-02-19T09:21:05.467Z,73.35
2017-02-19T09:22:15.735Z,72.88
2017-02-19T09:23:26.125Z,72.97
2017-02-19T09:24:36.008Z,72.97
2017-02-19T09:25:45.876Z,72.68
2017-02-19T09:26:56.010Z,71.58
2017-02-19T09:28:06.281Z,71.48
2017-02-19T09:29:16.560Z,71.58
2017-02-19T09:30:26.862Z,71.77
2017-02-19T09:31:37.180Z,71.48
2017-02-19T09:32:47.300Z,71.01
2017-02-19T09:33:57.668Z,70.82
2017-02-19T09:35:07.165Z,70.82
2017-02-19T09:36:17.501Z,70.54
2017-02-19T09:37:27.803Z,70.54
2017-02-19T09:38:38.330Z,70.54
2017-02-19T09:39:48.271Z,70.54
2017-02-19T09:40:58.817Z,70.63
2017-02-19T09:42:08.817Z,70.54
2017-02-19T09:43:19.097Z,70.82
2017-02-19T09:44:29.657Z,70.63
2017-02-19T09:45:39.965Z,70.35
2017-02-19T09:46:50.257Z,70.25
2017-02-19T09:48:00.545Z,69.53
2017-02-19T09:49:10.905Z,69.43
2017-02-19T09:50:21.033Z,68.96
2017-02-19T09:51:30.896Z,68.67
2017-02-19T09:52:41.163Z,68.01
2017-02-19T09:53:51.433Z,67.76
2017-02-19T09:55:01.745Z,67.47
2017-02-19T09:56:12.403Z,66.74
2017-02-19T09:57:22.675Z,66.36
2017-02-19T09:58:32.964Z,66.46
2017-02-19T09:59:43.274Z,66.36
2017-02-19T10:00:52.769Z,65.99
2017-02-19T10:02:03.323Z,65.99
2017-02-19T10:03:13.592Z,65.6
2017-02-19T10:04:23.461Z,65.35
2017-02-19T10:05:33.484Z,65.16
2017-02-19T10:06:44.242Z,65.51
2017-02-19T10:07:54.347Z,65.41
2017-02-19T10:09:04.267Z,65.6
2017-02-19T10:10:14.680Z,64.65
2017-02-19T10:11:24.960Z,65.13
2017-02-19T10:12:34.851Z,65.03
2017-02-19T10:13:45.408Z,65.13
2017-02-19T10:14:55.766Z,64.94
2017-02-19T10:16:06.275Z,64.18
2017-02-19T10:17:16.861Z,64.94
2017-02-19T10:18:26.774Z,64.31
2017-02-19T10:19:37.335Z,64.5
2017-02-19T10:20:47.608Z,64.5
2017-02-19T10:21:57.259Z,64.4
2017-02-19T10:23:07.587Z,64.02
2017-02-19T10:24:17.968Z,63.92
2017-02-19T10:25:28.542Z,64.02
2017-02-19T10:26:38.918Z,64.21
2017-02-19T10:27:49.248Z,63.89
2017-02-19T10:28:59.137Z,63.99
2017-02-19T10:30:09.035Z,63.89
2017-02-19T10:31:19.615Z,63.79
2017-02-19T10:32:29.885Z,63.89
2017-02-19T10:33:40.153Z,63.6
2017-02-19T10:34:50.022Z,63.99
2017-02-19T10:35:59.895Z,64.02
2017-02-19T10:37:10.430Z,63.73
2017-02-19T10:38:20.361Z,63.64
2017-02-19T10:39:30.699Z,63.35
2017-02-19T10:40:41.071Z,62.81
2017-02-19T10:41:50.606Z,62.34
2017-02-19T10:43:01.128Z,61.86
2017-02-19T10:44:11.428Z,62.34
2017-02-19T10:45:21.726Z,61.42
2017-02-19T10:46:32.062Z,61.32
2017-02-19T10:47:42.329Z,60.08
2017-02-19T10:48:53.016Z,58.87
2017-02-19T10:50:03.277Z,57.48
2017-02-19T10:51:13.655Z,57.03
2017-02-19T10:52:23.605Z,56.07
2017-02-19T10:53:33.505Z,56.84
2017-02-19T10:54:44.311Z,57.03
2017-02-19T10:55:54.587Z,56.46
2017-02-19T10:57:04.872Z,56.07
2017-02-19T10:58:15.163Z,55.88
2017-02-19T10:59:25.439Z,56.36
2017-02-19T11:00:35.985Z,56.33
2017-02-19T11:01:46.002Z,56.43
2017-02-19T11:02:56.402Z,56.9
2017-02-19T11:04:06.794Z,56.59
2017-02-19T11:05:16.700Z,56.3
2017-02-19T11:06:27.233Z,56.49
2017-02-19T11:07:37.543Z,56.68
2017-02-19T11:08:47.856Z,57.04
2017-02-19T11:09:58.225Z,56.85
2017-02-19T11:11:08.170Z,56.85
2017-02-19T11:12:18.787Z,56.87
2017-02-19T11:13:29.259Z,56.11
2017-02-19T11:14:39.693Z,55.95
2017-02-19T11:15:50.137Z,54.61
2017-02-19T11:17:00.418Z,53.88
2017-02-19T11:18:10.988Z,53.88
2017-02-19T11:19:20.997Z,52.95
2017-02-19T11:20:31.338Z,52.38
2017-02-19T11:21:41.633Z,51.07
2017-02-19T11:22:51.970Z,49.76
2017-02-19T11:24:02.480Z,50.9
2017-02-19T11:25:12.348Z,50.33
2017-02-19T11:26:22.234Z,49.38
2017-02-19T11:27:31.704Z,49.88
2017-02-19T11:28:41.609Z,49.78
2017-02-19T11:29:51.723Z,49.11
2017-02-19T11:31:01.599Z,49.18
2017-02-19T11:32:11.906Z,49.76
2017-02-19T11:33:21.822Z,49.18
2017-02-19T11:34:31.957Z,50.21
2017-02-19T11:35:42.612Z,50.21
2017-02-19T11:36:52.912Z,49.8
2017-02-19T11:38:02.869Z,49.9
2017-02-19T11:39:13.145Z,50.92
2017-02-19T11:40:23.494Z,51.97
2017-02-19T11:41:34.068Z,52.55
2017-02-19T11:42:43.989Z,52.45
2017-02-19T11:43:53.893Z,52.73
2017-02-19T11:45:04.263Z,53.12
2017-02-19T11:46:14.577Z,53.21
2017-02-19T11:47:25.221Z,53.31
2017-02-19T11:48:35.545Z,52.45
2017-02-19T11:49:45.883Z,52.73
2017-02-19T11:50:56.180Z,53.21
2017-02-19T11:52:06.089Z,52.07
2017-02-19T11:53:16.232Z,52.55
2017-02-19T11:54:26.520Z,52.92
2017-02-19T11:55:36.816Z,53.14
2017-02-19T11:56:47.121Z,53.21
2017-02-19T11:57:57.461Z,53.21
2017-02-19T11:59:07.627Z,53.81
2017-02-19T12:00:17.586Z,54.17
2017-02-19T12:01:27.875Z,53.97
2017-02-19T12:02:38.319Z,54.17
2017-02-19T12:03:48.699Z,54.07
2017-02-19T12:04:59.239Z,53.97
2017-02-19T12:06:09.560Z,54.24
2017-02-19T12:07:19.865Z,54.61
2017-02-19T12:08:30.178Z,55.38
2017-02-19T12:09:40.516Z,55.44
2017-02-19T12:10:51.102Z,55.92
2017-02-19T12:12:01.072Z,56.21
2017-02-19T12:13:11.530Z,56.3
2017-02-19T12:14:21.795Z,56.97
2017-02-19T12:15:32.111Z,56.97
2017-02-19T12:16:42.888Z,56.94
2017-02-19T12:17:53.286Z,57.42
2017-02-19T12:19:03.176Z,58.08
2017-02-19T12:20:13.439Z,58.18
2017-02-19T12:21:23.751Z,58.28
2017-02-19T12:22:34.300Z,57.99
2017-02-19T12:23:44.678Z,58.08
2017-02-19T12:24:55.079Z,58.56
2017-02-19T12:26:05.436Z,58.56
2017-02-19T12:27:15.788Z,58.84
2017-02-19T12:28:26.327Z,58.75
2017-02-19T12:29:36.632Z,59.03
2017-02-19T12:30:46.972Z,59.01
2017-02-19T12:31:56.878Z,59.51
2017-02-19T12:33:06.945Z,59.99
2017-02-19T12:34:17.528Z,59.89
2017-02-19T12:35:27.819Z,60.18
2017-02-19T12:36:38.184Z,59.96
2017-02-19T12:37:48.543Z,59.86
2017-02-19T12:38:58.847Z,60.34
2017-02-19T12:40:09.608Z,60.63
2017-02-19T12:41:19.926Z,60.44
2017-02-19T12:42:30.215Z,60.63
2017-02-19T12:43:40.485Z,60.63
2017-02-19T12:44:50.000Z,61.38
2017-02-19T12:45:59.724Z,61.19
2017-02-19T12:47:10.065Z,61
2017-02-19T12:48:20.337Z,61.38
2017-02-19T12:49:30.695Z,61.48
2017-02-19T12:50:41.005Z,61.77
2017-02-19T12:51:51.581Z,61.19
2017-02-19T12:53:01.936Z,61.58
2017-02-19T12:54:12.251Z,61.48
2017-02-19T12:55:22.542Z,61.67
2017-02-19T12:56:32.433Z,62.15
2017-02-19T12:57:42.969Z,61.96
2017-02-19T12:58:53.320Z,61.48
2017-02-19T13:00:03.682Z,61.67
2017-02-19T13:01:13.957Z,62.24
2017-02-19T13:02:24.278Z,61.96
2017-02-19T13:03:34.811Z,62.43
2017-02-19T13:04:45.084Z,61.83
2017-02-19T13:05:55.379Z,62.12
2017-02-19T13:07:05.747Z,62.24
2017-02-19T13:08:16.058Z,62.24
2017-02-19T13:09:26.624Z,62.88
2017-02-19T13:10:36.564Z,62.81
2017-02-19T13:11:46.886Z,62.69
2017-02-19T13:12:57.295Z,62.88
2017-02-19T13:14:07.159Z,63.64
2017-02-19T13:15:17.697Z,63.26
2017-02-19T13:16:27.988Z,63.73
2017-02-19T13:17:38.529Z,63.45
2017-02-19T13:18:48.487Z,63.83
2017-02-19T13:19:58.363Z,63.73
2017-02-19T13:21:08.961Z,63.83
2017-02-19T13:22:19.254Z,64.21
2017-02-19T13:23:29.634Z,64.31
2017-02-19T13:24:39.553Z,64.69
2017-02-19T13:25:49.824Z,65.45
2017-02-19T13:27:00.384Z,65.45
2017-02-19T13:28:10.773Z,65.64
2017-02-19T13:29:21.086Z,65.92
2017-02-19T13:30:31.443Z,66.2
2017-02-19T13:31:41.823Z,66.11
2017-02-19T13:32:52.452Z,66.68
2017-02-19T13:34:02.808Z,67.44
2017-02-19T13:35:12.874Z,67.82
2017-02-19T13:36:22.754Z,67.92
2017-02-19T13:37:33.215Z,67.73
2017-02-19T13:38:43.817Z,68.3
2017-02-19T13:39:53.716Z,68.59
2017-02-19T13:41:03.195Z,69.54
2017-02-19T13:42:13.556Z,69.82
2017-02-19T13:43:23.936Z,70.58
2017-02-19T13:44:34.578Z,70.74
2017-02-19T13:45:44.836Z,70.01
2017-02-19T13:46:54.983Z,69.98
2017-02-19T13:48:05.339Z,70.93
2017-02-19T13:49:15.743Z,70.64
2017-02-19T13:50:26.320Z,70.74
2017-02-19T13:51:36.218Z,70.74
2017-02-19T13:52:46.525Z,70.83
2017-02-19T13:53:56.834Z,70.64
2017-02-19T13:55:07.114Z,71.5
2017-02-19T13:56:17.663Z,71.69
2017-02-19T13:57:27.567Z,71.31
2017-02-19T13:58:37.875Z,71.22
2017-02-19T13:59:48.133Z,71.12
2017-02-19T14:00:58.073Z,71.88
2017-02-19T14:02:08.642Z,71.78
2017-02-19T14:03:19.082Z,72.35
2017-02-19T14:04:30.142Z,72.64
2017-02-19T14:05:40.864Z,72.64
2017-02-19T14:06:51.176Z,72.45
2017-02-19T14:08:01.915Z,72.45
2017-02-19T14:09:12.193Z,72.64
2017-02-19T14:10:22.513Z,73.02
2017-02-19T14:11:32.822Z,72.83
2017-02-19T14:12:43.194Z,72.74
2017-02-19T14:13:54.462Z,73.21
2017-02-19T14:15:05.375Z,73.11
2017-02-19T14:16:15.695Z,73.11
2017-02-19T14:17:25.662Z,72.92
2017-02-19T14:18:35.589Z,73.78
2017-02-19T14:19:46.117Z,73.55
2017-02-19T14:20:55.997Z,73.46
2017-02-19T14:22:06.435Z,73.65
2017-02-19T14:23:16.708Z,74.03
2017-02-19T14:24:26.631Z,74.12
2017-02-19T14:25:37.204Z,74.31
2017-02-19T14:26:47.109Z,74.51
2017-02-19T14:27:57.012Z,74.31
2017-02-19T14:29:07.294Z,74.51
2017-02-19T14:30:17.603Z,74.51
2017-02-19T14:31:27.855Z,74.88
2017-02-19T14:32:38.182Z,74.51
2017-02-19T14:33:48.500Z,74.22
2017-02-19T14:34:58.418Z,74.22
2017-02-19T14:36:08.894Z,74.51
2017-02-19T14:37:19.170Z,74.22
2017-02-19T14:38:29.521Z,74.31
2017-02-19T14:39:39.403Z,74.6
2017-02-19T14:40:49.337Z,74.88
2017-02-19T14:41:59.652Z,74.98
2017-02-19T14:43:09.778Z,74.22
2017-02-19T14:44:20.094Z,74.51
2017-02-19T14:45:29.972Z,74.69
2017-02-19T14:46:40.266Z,74.51
2017-02-19T14:47:50.546Z,74.51
2017-02-19T14:49:01.116Z,74.41
2017-02-19T14:50:11.499Z,74.88
2017-02-19T14:51:21.444Z,74.98
2017-02-19T14:52:31.840Z,74.79
2017-02-19T14:53:42.128Z,74.88
2017-02-19T14:54:52.720Z,74.79
2017-02-19T14:56:02.976Z,74.79
2017-02-19T14:57:13.323Z,74.79
2017-02-19T14:58:23.628Z,74.88
2017-02-19T14:59:33.609Z,75.45
2017-02-19T15:00:44.246Z,75.36
2017-02-19T15:01:54.535Z,74.98
2017-02-19T15:03:04.854Z,75.07
2017-02-19T15:04:15.156Z,74.79
2017-02-19T15:05:25.708Z,74.88
2017-02-19T15:06:35.866Z,75.45